Time;durP1;ratioP1;P1;durP2;ratioP2;P2;SDS_P1;SDS_P2;PMS_P1;PMS_P2;Temp;Humidity;BMP_temperature;BMP_pressure;BME280_temperature;BME280_humidity;BME280_pressure;Samples;Min_cycle;Max_cycle;Signal;HPM_P1;HPM_P2
2022/12/22 03:26:18;;;;;;;135.65;47.47;;;;;;;7.10;100.00;100052.47;4932952;29;20020;-72
2022/12/22 03:28:43;;;;;;;117.63;43.47;;;;;;;7.19;100.00;100051.53;4916020;29;20043;-72
2022/12/22 03:31:09;;;;;;;139.18;44.63;;;;;;;7.16;100.00;100051.84;4916104;29;20038;-72
2022/12/22 03:33:35;;;;;;;127.07;42.38;;;;;;;7.20;100.00;100042.47;4915901;29;20027;-72
2022/12/22 03:36:00;;;;;;;135.30;45.63;;;;;;;7.20;100.00;100047.84;4932529;29;20084;-72
2022/12/22 03:38:26;;;;;;;128.45;43.17;;;;;;;7.39;100.00;100040.56;4915288;29;20032;-72
2022/12/22 03:40:51;;;;;;;129.48;43.90;;;;;;;7.35;100.00;100035.50;4915399;29;20023;-71
2022/12/22 03:51:30;;;;;;;127.25;42.28;;;;;;;7.45;100.00;100035.41;4932229;29;20024;-71
2022/12/22 03:53:56;;;;;;;129.80;41.58;;;;;;;7.32;100.00;100027.75;4917813;29;20051;-71
2022/12/22 03:56:21;;;;;;;106.90;37.78;;;;;;;7.31;100.00;100023.38;4915052;29;20070;-70
2022/12/22 03:58:46;;;;;;;126.25;41.33;;;;;;;7.32;100.00;100019.66;4947524;29;20051;-71
2022/12/22 04:01:12;;;;;;;148.75;46.35;;;;;;;7.38;100.00;100022.72;4947184;29;20031;-71
2022/12/22 04:03:37;;;;;;;149.07;45.92;;;;;;;7.45;100.00;100018.41;4932484;29;20061;-70
2022/12/22 04:06:03;;;;;;;170.80;49.40;;;;;;;7.49;100.00;100014.38;4915135;29;20024;-71
2022/12/22 04:08:28;;;;;;;147.65;47.70;;;;;;;7.44;100.00;100014.03;4915787;29;20016;-70
2022/12/22 04:13:37;;;;;;;127.32;40.17;;;;;;;7.58;100.00;100013.44;4926432;29;20039;-71
2022/12/22 04:16:03;;;;;;;175.65;45.80;;;;;;;7.56;100.00;100010.03;4905230;29;20035;-71
2022/12/22 04:18:28;;;;;;;146.55;46.13;;;;;;;7.49;100.00;99998.19;4896628;29;20034;-70
2022/12/22 04:20:54;;;;;;;143.50;45.33;;;;;;;7.51;100.00;99997.06;4909980;29;20040;-71
2022/12/22 04:23:19;;;;;;;136.57;43.47;;;;;;;7.41;100.00;100006.25;4910555;29;20036;-71
2022/12/22 04:25:44;;;;;;;158.27;44.90;;;;;;;7.63;100.00;99994.94;4896327;29;20028;-71
2022/12/22 04:28:10;;;;;;;150.07;44.30;;;;;;;7.54;100.00;99987.81;4913640;29;20024;-71
2022/12/22 04:30:35;;;;;;;155.02;45.92;;;;;;;7.49;100.00;99987.44;4921074;29;20036;-70
2022/12/22 04:33:00;;;;;;;178.45;48.13;;;;;;;7.59;100.00;99982.78;4920727;29;20024;-70
2022/12/22 04:35:26;;;;;;;125.93;40.95;;;;;;;7.38;100.00;99979.66;4905235;29;20028;-72
2022/12/22 04:37:51;;;;;;;152.48;43.70;;;;;;;7.42;100.00;99975.63;4907583;29;20039;-69
2022/12/22 04:40:16;;;;;;;157.10;42.33;;;;;;;7.52;100.00;99961.03;4899438;29;20031;-71
2022/12/22 04:42:42;;;;;;;132.45;43.90;;;;;;;7.41;100.00;99973.94;4899813;29;20024;-72
2022/12/22 04:45:08;;;;;;;118.95;38.83;;;;;;;7.42;100.00;99964.84;4925165;29;20020;-71
2022/12/22 04:47:33;;;;;;;127.65;39.80;;;;;;;7.41;100.00;99964.00;4897519;29;20024;-71
2022/12/22 04:49:58;;;;;;;129.35;39.10;;;;;;;7.56;100.00;99961.53;4899800;29;20059;-71
2022/12/22 04:52:25;;;;;;;106.75;35.15;;;;;;;7.47;100.00;99957.13;4924166;29;20028;-70
2022/12/22 04:54:50;;;;;;;124.35;39.78;;;;;;;7.43;100.00;99950.38;4916545;29;20032;-71
2022/12/22 04:57:16;;;;;;;135.43;42.35;;;;;;;7.37;100.00;99951.00;4909123;29;20052;-70
2022/12/22 04:59:41;;;;;;;128.05;39.17;;;;;;;7.40;100.00;99939.94;4903192;29;20114;-71
2022/12/22 05:02:06;;;;;;;180.35;45.63;;;;;;;7.30;100.00;99940.91;4927773;29;20032;-71
2022/12/22 05:04:32;;;;;;;169.88;44.78;;;;;;;7.29;100.00;99944.56;4906641;29;20028;-71
2022/12/22 05:06:57;;;;;;;84.55;32.75;;;;;;;7.34;100.00;99947.63;4929445;29;20028;-71
2022/12/22 05:09:22;;;;;;;134.43;43.42;;;;;;;7.32;100.00;99949.66;4910624;29;20024;-71
2022/12/22 05:11:48;;;;;;;134.50;43.78;;;;;;;7.29;100.00;99939.19;4905984;29;20071;-70
2022/12/22 05:14:13;;;;;;;143.93;45.63;;;;;;;7.51;100.00;99942.34;4931340;29;20039;-71
2022/12/22 05:16:38;;;;;;;145.75;44.35;;;;;;;7.43;100.00;99934.22;4914476;29;20032;-70
2022/12/22 05:19:03;;;;;;;145.68;44.08;;;;;;;7.32;100.00;99928.13;4914869;29;20028;-71
2022/12/22 05:21:29;;;;;;;133.30;41.80;;;;;;;7.38;100.00;99923.09;4915365;29;20230;-71
2022/12/22 05:23:54;;;;;;;95.53;37.97;;;;;;;7.42;100.00;99919.91;4914442;29;20154;-72
2022/12/22 05:26:19;;;;;;;178.77;43.85;;;;;;;7.38;100.00;99915.03;4930552;29;20032;-71
2022/12/22 05:28:46;;;;;;;159.20;43.83;;;;;;;7.36;100.00;99907.09;4914787;29;20020;-71
2022/12/22 05:31:18;;;;;;;151.68;45.03;;;;;;;7.45;100.00;99916.06;4946770;28;20163;-71
2022/12/22 05:33:44;;;;;;;134.70;41.08;;;;;;;7.66;100.00;99913.78;4946547;28;20475;-71
2022/12/22 05:36:09;;;;;;;161.15;45.33;;;;;;;7.48;100.00;99915.72;4914820;29;20024;-71
2022/12/22 05:38:35;;;;;;;114.05;38.45;;;;;;;7.45;100.00;99911.53;4930722;29;20028;-71
2022/12/22 05:41:00;;;;;;;136.40;41.88;;;;;;;7.39;100.00;99916.69;4914628;29;20095;-72
2022/12/22 05:43:25;;;;;;;177.00;48.40;;;;;;;7.58;100.00;99916.44;4914584;29;20031;-71
2022/12/22 05:45:52;;;;;;;139.77;43.47;;;;;;;7.53;100.00;99908.84;4907241;29;20436;-71
2022/12/22 05:48:17;;;;;;;178.20;46.22;;;;;;;7.51;100.00;99915.41;4922641;29;20016;-71
2022/12/22 05:50:42;;;;;;;137.10;42.70;;;;;;;7.54;100.00;99915.06;4914284;29;20404;-71
2022/12/22 05:53:08;;;;;;;147.57;45.80;;;;;;;7.65;100.00;99917.47;4930356;29;20039;-71
2022/12/22 05:55:34;;;;;;;182.52;50.75;;;;;;;7.56;100.00;99915.75;4927943;29;20448;-71
2022/12/22 05:58:00;;;;;;;122.13;41.88;;;;;;;7.59;100.00;99923.53;4929774;29;20024;-70
2022/12/22 06:00:31;;;;;;;162.00;46.83;;;;;;;7.67;100.00;99914.63;4916401;29;20125;-71
2022/12/22 06:02:57;;;;;;;171.30;46.88;;;;;;;7.62;100.00;99912.41;4927289;29;20025;-71
2022/12/22 06:05:23;;;;;;;108.53;38.67;;;;;;;7.64;100.00;99913.13;4931855;29;20028;-71
2022/12/22 06:07:49;;;;;;;153.27;46.45;;;;;;;7.48;100.00;99910.34;4930758;29;20328;-71
2022/12/22 06:10:18;;;;;;;130.90;42.20;;;;;;;7.56;100.00;99913.94;4930808;29;20036;-71
2022/12/22 06:12:43;;;;;;;86.78;36.22;;;;;;;7.71;100.00;99906.06;4929954;29;20054;-72
2022/12/22 06:15:11;;;;;;;128.57;40.53;;;;;;;7.55;100.00;99896.06;4929715;29;20047;-71
2022/12/22 06:17:37;;;;;;;128.77;42.78;;;;;;;7.52;100.00;99895.56;4933559;29;20036;-71
2022/12/22 06:20:04;;;;;;;134.25;44.58;;;;;;;7.43;100.00;99896.50;4934396;29;20034;-71
2022/12/22 06:22:29;;;;;;;167.10;48.80;;;;;;;7.49;100.00;99891.31;4932983;29;20036;-71
2022/12/22 06:24:54;;;;;;;145.88;46.22;;;;;;;7.51;100.00;99892.03;4934483;29;20067;-72
2022/12/22 06:27:23;;;;;;;159.15;46.22;;;;;;;7.67;100.00;99888.53;4917361;29;20031;-71
2022/12/22 06:29:48;;;;;;;144.48;42.70;;;;;;;7.61;100.00;99889.19;4940805;29;20092;-72
2022/12/22 06:32:14;;;;;;;157.93;47.47;;;;;;;7.68;100.00;99894.75;4917233;29;20122;-72
2022/12/22 06:34:39;;;;;;;149.27;45.65;;;;;;;7.70;100.00;99893.59;4917011;29;20035;-71
2022/12/22 06:37:05;;;;;;;141.48;44.28;;;;;;;7.84;100.00;99900.19;4916560;29;20094;-71
2022/12/22 06:39:30;;;;;;;139.98;44.20;;;;;;;7.73;100.00;99898.66;4924756;29;20028;-71
2022/12/22 06:44:39;;;;;;;147.18;44.55;;;;;;;7.83;100.00;99893.97;4935493;29;20031;-72
2022/12/22 06:47:05;;;;;;;92.32;36.38;;;;;;;7.87;100.00;99895.31;4937958;29;20122;-72
2022/12/22 06:49:30;;;;;;;132.95;42.83;;;;;;;7.86;100.00;99899.03;4932227;29;20032;-72
2022/12/22 06:51:55;;;;;;;116.97;42.50;;;;;;;7.94;100.00;99889.25;4932646;29;20263;-72
2022/12/22 06:54:21;;;;;;;130.32;44.13;;;;;;;7.89;100.00;99887.94;4932765;29;20445;-72
2022/12/22 06:56:46;;;;;;;159.55;46.97;;;;;;;8.02;100.00;99891.97;4915743;29;20460;-73
2022/12/22 06:59:12;;;;;;;135.07;44.35;;;;;;;8.02;100.00;99897.34;4932693;29;20023;-73
2022/12/22 07:01:38;;;;;;;98.53;36.25;;;;;;;7.98;100.00;99896.84;4934218;29;20435;-73
2022/12/22 07:04:03;;;;;;;115.70;42.58;;;;;;;7.90;100.00;99904.94;4916396;29;20055;-73
2022/12/22 07:06:28;;;;;;;100.75;36.40;;;;;;;7.98;100.00;99906.81;4918239;29;20103;-74
2022/12/22 07:08:54;;;;;;;112.20;40.45;;;;;;;8.01;100.00;99895.69;4917892;29;20087;-72
2022/12/22 07:11:19;;;;;;;123.30;42.50;;;;;;;8.06;100.00;99904.13;4948613;29;20095;-72
2022/12/22 07:13:45;;;;;;;112.70;40.17;;;;;;;8.09;100.00;99898.41;4921066;29;20102;-73
2022/12/22 07:16:10;;;;;;;125.93;41.65;;;;;;;8.05;100.00;99892.50;4946438;29;20074;-73
2022/12/22 07:18:39;;;;;;;147.02;45.78;;;;;;;8.10;100.00;99894.69;4917169;29;20070;-73
2022/12/22 07:21:10;;;;;;;160.77;44.92;;;;;;;8.09;100.00;99888.47;4933040;29;20224;-72
2022/12/22 07:23:35;;;;;;;127.25;41.45;;;;;;;8.00;100.00;99888.59;4931974;29;20039;-71
2022/12/22 07:26:02;;;;;;;143.73;41.83;;;;;;;8.00;100.00;99889.44;4915946;29;20029;-71
2022/12/22 07:28:28;;;;;;;129.25;39.03;;;;;;;7.93;100.00;99883.03;4930262;29;20023;-71
2022/12/22 07:30:54;;;;;;;173.57;47.78;;;;;;;7.83;100.00;99893.13;4932504;29;20118;-71
2022/12/22 07:33:19;;;;;;;173.02;47.25;;;;;;;7.83;100.00;99893.97;4947363;29;20379;-72
2022/12/22 07:35:45;;;;;;;149.88;45.75;;;;;;;7.94;100.00;99889.25;4930135;29;20038;-71
2022/12/22 07:38:11;;;;;;;133.70;41.22;;;;;;;7.89;100.00;99887.94;4915759;29;20185;-70
2022/12/22 07:40:36;;;;;;;215.90;52.85;;;;;;;7.98;100.00;99890.63;4914545;29;20031;-71
2022/12/22 07:43:01;;;;;;;161.15;46.80;;;;;;;8.08;100.00;99885.91;4915493;29;20030;-72
2022/12/22 07:45:27;;;;;;;124.07;41.97;;;;;;;7.95;100.00;99882.84;4915573;29;20043;-70
2022/12/22 07:48:00;;;;;;;139.52;44.63;;;;;;;7.79;100.00;99886.38;4933990;29;20031;-71
2022/12/22 07:50:28;;;;;;;145.27;46.53;;;;;;;7.81;100.00;99890.56;4947019;28;20054;-70
2022/12/22 07:53:02;;;;;;;138.82;42.78;;;;;;;7.88;100.00;99891.59;4915137;29;20027;-70
2022/12/22 07:55:30;;;;;;;105.65;40.33;;;;;;;7.97;100.00;99895.19;4910151;29;20059;-70
2022/12/22 07:57:56;;;;;;;103.10;37.75;;;;;;;7.94;100.00;99894.66;4933245;29;20040;-70
2022/12/22 08:00:23;;;;;;;112.53;41.28;;;;;;;8.02;100.00;99892.84;4931843;29;20032;-70
2022/12/22 08:02:50;;;;;;;134.60;44.30;;;;;;;8.16;100.00;99899.44;4931406;29;20034;-71
2022/12/22 08:05:16;;;;;;;125.80;41.63;;;;;;;7.88;100.00;99902.38;4947439;29;20031;-72
2022/12/22 08:07:41;;;;;;;177.40;48.65;;;;;;;7.79;100.00;99898.00;4934138;29;20031;-72
2022/12/22 08:10:07;;;;;;;160.77;48.08;;;;;;;7.77;100.00;99900.03;4917303;29;20023;-72
2022/12/22 08:12:33;;;;;;;174.20;49.08;;;;;;;7.74;100.00;99894.94;4933686;29;20554;-71
2022/12/22 08:14:58;;;;;;;114.50;41.45;;;;;;;7.73;100.00;99893.25;4913641;29;20115;-72
2022/12/22 08:17:28;;;;;;;129.48;44.72;;;;;;;7.75;100.00;99893.94;4914228;29;20031;-70
2022/12/22 08:19:54;;;;;;;171.60;48.92;;;;;;;7.71;100.00;99895.28;4897580;29;20024;-70
2022/12/22 08:22:22;;;;;;;178.38;50.55;;;;;;;7.71;100.00;99900.66;4915591;29;20136;-70
2022/12/22 08:24:57;;;;;;;131.02;42.40;;;;;;;7.69;100.00;99902.66;4901640;29;20099;-72
2022/12/22 08:27:30;;;;;;;130.63;42.35;;;;;;;7.86;100.00;99896.31;4900973;29;20035;-73
2022/12/22 08:30:00;;;;;;;142.98;45.53;;;;;;;7.72;100.00;99905.06;4900941;29;20111;-71
2022/12/22 08:32:26;;;;;;;152.68;44.58;;;;;;;7.72;100.00;99896.97;4916594;29;20111;-71
2022/12/22 08:34:52;;;;;;;139.50;44.25;;;;;;;7.71;100.00;99903.38;4917549;29;20168;-71
2022/12/22 08:37:21;;;;;;;142.77;43.72;;;;;;;7.74;100.00;99894.09;4917373;29;20498;-72
2022/12/22 08:39:51;;;;;;;151.70;42.00;;;;;;;7.72;100.00;99891.56;4901271;29;20034;-72
2022/12/22 08:42:19;;;;;;;134.63;41.83;;;;;;;7.59;100.00;99891.19;4901694;29;20028;-73
2022/12/22 08:44:46;;;;;;;131.65;42.70;;;;;;;7.66;100.00;99886.00;4917059;29;20020;-72
2022/12/22 08:47:19;;;;;;;119.85;38.30;;;;;;;7.73;100.00;99897.81;4901458;29;20032;-73
2022/12/22 08:49:48;;;;;;;144.10;45.40;;;;;;;7.93;100.00;99892.97;4901160;29;20403;-72
2022/12/22 08:52:15;;;;;;;100.13;35.90;;;;;;;7.80;100.00;99891.59;4918018;29;20387;-72
2022/12/22 08:54:41;;;;;;;134.93;39.20;;;;;;;7.78;100.00;99896.31;4915724;29;20024;-72
2022/12/22 08:57:06;;;;;;;147.77;43.28;;;;;;;7.71;100.00;99895.28;4900018;29;20107;-71
2022/12/22 08:59:32;;;;;;;117.78;39.35;;;;;;;7.81;100.00;99893.28;4900371;29;20475;-71
2022/12/22 09:01:57;;;;;;;115.65;39.65;;;;;;;7.83;100.00;99899.38;4931300;29;20024;-72
2022/12/22 09:04:24;;;;;;;134.48;42.17;;;;;;;7.90;100.00;99899.56;4917073;29;20031;-71
2022/12/22 09:06:52;;;;;;;134.50;40.28;;;;;;;7.88;100.00;99901.53;4901190;29;20118;-71
2022/12/22 09:09:18;;;;;;;124.20;39.42;;;;;;;7.92;100.00;99902.06;4917191;29;20032;-74
2022/12/22 09:11:44;;;;;;;108.57;39.10;;;;;;;7.91;100.00;99895.84;4917339;29;20089;-74
2022/12/22 09:14:10;;;;;;;137.80;41.83;;;;;;;7.96;100.00;99896.19;4917297;29;20392;-74
2022/12/22 09:16:36;;;;;;;115.40;40.15;;;;;;;8.01;100.00;99891.13;4899836;29;20132;-74
2022/12/22 09:19:02;;;;;;;98.05;35.13;;;;;;;8.14;100.00;99894.19;4932129;29;20091;-74
2022/12/22 09:21:27;;;;;;;148.55;42.22;;;;;;;8.16;100.00;99899.44;4899641;29;20035;-74
2022/12/22 09:23:54;;;;;;;122.80;38.85;;;;;;;8.23;100.00;99900.44;4900810;29;20024;-74
2022/12/22 09:26:21;;;;;;;92.20;34.50;;;;;;;8.25;100.00;99898.41;4900078;29;20028;-74
2022/12/22 09:28:46;;;;;;;137.00;40.70;;;;;;;8.41;100.00;99898.47;4899183;29;20023;-72
2022/12/22 09:31:12;;;;;;;149.90;45.30;;;;;;;8.41;100.00;99881.41;4919400;29;20020;-72
2022/12/22 09:33:37;;;;;;;134.27;41.95;;;;;;;8.36;100.00;99886.50;4937549;28;20031;-72
2022/12/22 09:36:07;;;;;;;106.68;38.72;;;;;;;8.47;100.00;99902.31;4928709;29;20184;-72
2022/12/22 09:38:33;;;;;;;104.82;39.45;;;;;;;8.37;100.00;99902.50;4896836;29;20056;-72
2022/12/22 09:40:58;;;;;;;72.18;33.38;;;;;;;8.52;100.00;99899.13;4928480;29;20063;-71
2022/12/22 09:43:28;;;;;;;76.18;33.28;;;;;;;8.51;100.00;99897.44;4910080;29;20028;-71
2022/12/22 09:45:57;;;;;;;71.00;32.20;;;;;;;8.29;100.00;99907.88;4921208;29;20535;-70
2022/12/22 09:48:28;;;;;;;64.70;31.38;;;;;;;8.18;100.00;99902.78;4897158;29;20365;-71
2022/12/22 09:50:54;;;;;;;60.10;29.48;;;;;;;8.29;100.00;99901.63;4914050;29;20024;-71
2022/12/22 09:53:22;;;;;;;78.47;36.78;;;;;;;8.23;100.00;99899.59;4896748;29;20080;-70
2022/12/22 09:55:49;;;;;;;78.43;34.53;;;;;;;8.22;100.00;99898.75;4913134;29;20071;-71
2022/12/22 09:58:31;;;;;;;80.22;36.22;;;;;;;8.34;100.00;99905.50;4895976;29;20016;-70
2022/12/22 10:01:24;;;;;;;96.28;42.03;;;;;;;8.20;100.00;99903.47;4910236;29;20029;-70
2022/12/22 10:04:22;;;;;;;103.95;41.90;;;;;;;8.31;100.00;99911.22;4919313;29;20028;-71
2022/12/22 10:06:54;;;;;;;87.65;38.65;;;;;;;8.27;100.00;99906.31;4916817;29;20035;-71
2022/12/22 10:09:22;;;;;;;90.55;38.08;;;;;;;8.23;100.00;99910.38;4916475;29;20016;-69
2022/12/22 10:11:52;;;;;;;89.93;41.85;;;;;;;8.03;100.00;99909.84;4913786;29;20051;-71
2022/12/22 10:14:18;;;;;;;102.40;42.88;;;;;;;7.94;100.00;99911.66;4915987;29;20159;-70
2022/12/22 10:16:44;;;;;;;94.57;42.65;;;;;;;7.94;100.00;99921.59;4919186;29;20038;-70
2022/12/22 10:19:11;;;;;;;92.97;40.70;;;;;;;7.97;100.00;99919.44;4916913;29;20048;-72
2022/12/22 10:21:37;;;;;;;82.38;37.50;;;;;;;8.04;100.00;99922.31;4909757;29;20115;-70
2022/12/22 10:24:28;;;;;;;98.95;40.80;;;;;;;8.05;100.00;99913.22;4922334;29;20140;-69
2022/12/22 10:26:59;;;;;;;85.22;39.47;;;;;;;8.14;100.00;99912.22;4906976;29;20509;-71
2022/12/22 10:29:25;;;;;;;73.82;32.40;;;;;;;8.15;100.00;99913.91;4921561;29;20490;-72
2022/12/22 10:32:02;;;;;;;67.00;32.30;;;;;;;8.08;100.00;99910.16;4900632;29;20059;-72
2022/12/22 10:34:28;;;;;;;59.42;28.73;;;;;;;8.24;100.00;99910.22;4919724;29;20027;-70
2022/12/22 10:36:58;;;;;;;58.03;29.23;;;;;;;8.11;100.00;99918.78;4910463;29;20031;-71
2022/12/22 10:39:27;;;;;;;60.63;30.52;;;;;;;8.20;100.00;99911.53;4926334;29;20102;-72
2022/12/22 10:41:55;;;;;;;62.60;31.60;;;;;;;8.03;100.00;99931.41;4897890;29;20024;-72
2022/12/22 10:44:28;;;;;;;59.92;27.75;;;;;;;8.29;100.00;99921.34;4922532;29;20027;-72
2022/12/22 10:46:56;;;;;;;59.50;29.70;;;;;;;8.34;100.00;99913.56;4929059;29;20027;-73
2022/12/22 10:49:26;;;;;;;62.72;30.75;;;;;;;8.31;100.00;99919.31;4918294;29;20091;-72
2022/12/22 10:51:55;;;;;;;60.53;26.48;;;;;;;8.50;100.00;99918.19;4918796;29;20131;-71
2022/12/22 10:54:27;;;;;;;67.80;34.00;;;;;;;8.33;100.00;99919.16;4920257;29;20035;-72
2022/12/22 10:57:00;;;;;;;;;;;;;;;8.59;100.00;99927.13;4917178;29;20038;-73
2022/12/22 10:59:25;;;;;;;58.13;30.20;;;;;;;8.69;100.00;99933.19;4901824;29;19930;-71
2022/12/22 11:01:50;;;;;;;63.30;33.08;;;;;;;8.40;100.00;99929.13;4896292;29;20050;-72
2022/12/22 11:04:27;;;;;;;53.20;29.38;;;;;;;8.53;100.00;99927.78;4910270;29;20029;-72
2022/12/22 11:06:54;;;;;;;54.33;29.10;;;;;;;8.57;100.00;99923.75;4904999;29;20035;-72
2022/12/22 11:09:21;;;;;;;50.55;28.58;;;;;;;8.37;100.00;99921.38;4911528;29;20467;-70
2022/12/22 11:11:51;;;;;;;49.63;29.48;;;;;;;8.43;100.00;99923.41;4910622;29;20078;-71
2022/12/22 11:14:30;;;;;;;54.17;28.73;;;;;;;8.72;100.00;99921.22;4897290;29;20039;-74
2022/12/22 11:17:05;;;;;;;51.70;28.23;;;;;;;9.08;100.00;99916.28;4924460;29;20494;-72
2022/12/22 11:19:53;;;;;;;42.28;26.58;;;;;;;8.96;100.00;99911.22;4916484;29;20115;-72
2022/12/22 11:22:40;;;;;;;40.03;24.17;;;;;;;9.27;100.00;99920.47;4934008;29;20031;-73
2022/12/22 11:25:31;;;;;;;45.28;25.17;;;;;;;9.11;100.00;99915.94;4909180;29;20057;-72
2022/12/22 11:28:25;;;;;;;41.05;24.90;;;;;;;9.08;100.00;99921.69;4916008;29;20403;-72
2022/12/22 11:31:20;;;;;;;36.85;21.58;;;;;;;8.72;100.00;99922.06;4933263;29;20153;-74
2022/12/22 11:34:08;;;;;;;42.22;25.73;;;;;;;8.83;100.00;99924.41;4948535;28;20030;-72
2022/12/22 11:37:01;;;;;;;39.53;24.13;;;;;;;8.76;100.00;99918.00;4916752;29;20024;-72
2022/12/22 11:39:45;;;;;;;42.70;24.15;;;;;;;8.78;100.00;99921.38;4917052;29;20036;-72
2022/12/22 11:42:23;;;;;;;39.92;23.52;;;;;;;8.97;100.00;99914.78;4917557;29;20039;-72
2022/12/22 11:45:19;;;;;;;37.97;21.77;;;;;;;8.65;100.00;99921.03;4939719;29;20031;-72
2022/12/22 11:48:19;;;;;;;35.92;21.30;;;;;;;8.67;100.00;99935.19;4939728;28;20039;-72
2022/12/22 11:50:48;;;;;;;34.65;21.20;;;;;;;8.85;100.00;99916.97;4915931;29;20465;-73
2022/12/22 11:53:51;;;;;;;34.17;20.45;;;;;;;9.12;100.00;99923.00;4916493;29;20042;-73
2022/12/22 11:56:32;;;;;;;35.50;22.38;;;;;;;9.08;100.00;99937.88;4943187;28;20051;-71
2022/12/22 11:59:35;;;;;;;34.80;20.95;;;;;;;9.44;100.00;99927.47;4937846;29;20031;-72
2022/12/22 12:02:15;;;;;;;37.15;21.90;;;;;;;9.29;100.00;99930.06;4938029;29;20043;-73
2022/12/22 12:05:12;;;;;;;36.67;21.50;;;;;;;9.29;100.00;99942.72;4925715;29;20031;-73
2022/12/22 12:07:43;;;;;;;36.00;21.25;;;;;;;9.19;100.00;99940.19;4933894;29;20122;-73
2022/12/22 12:10:21;;;;;;;33.92;21.73;;;;;;;9.28;100.00;99938.34;4930376;29;20027;-73
2022/12/22 12:13:13;;;;;;;36.03;21.38;;;;;;;9.14;100.00;99939.91;4934972;29;20040;-72
2022/12/22 12:16:08;;;;;;;37.25;21.73;;;;;;;8.94;100.00;99948.38;4949138;28;20055;-73
2022/12/22 12:18:51;;;;;;;32.17;20.27;;;;;;;8.98;100.00;99949.69;4906107;29;20020;-72
2022/12/22 12:21:45;;;;;;;46.03;21.80;;;;;;;8.91;100.00;99948.69;4901709;29;20048;-73
2022/12/22 12:24:28;;;;;;;31.92;18.95;;;;;;;8.76;100.00;99961.19;4925544;29;20021;-72
2022/12/22 12:27:23;;;;;;;36.65;17.25;;;;;;;8.72;100.00;99959.84;4914188;29;20043;-73
2022/12/22 12:30:09;;;;;;;32.72;19.10;;;;;;;8.82;100.00;99965.91;4933010;29;20047;-73
2022/12/22 12:32:57;;;;;;;33.58;17.65;;;;;;;9.08;100.00;99959.47;4901104;29;20071;-73
2022/12/22 12:35:47;;;;;;;32.72;16.48;;;;;;;8.75;100.00;99970.31;4910466;29;20028;-72
2022/12/22 12:38:52;;;;;;;37.70;17.80;;;;;;;8.83;100.00;99962.19;4901026;29;20084;-74
2022/12/22 12:41:37;;;;;;;31.45;14.60;;;;;;;8.97;100.00;99958.81;4911430;29;20036;-71
2022/12/22 12:44:04;;;;;;;35.95;16.73;;;;;;;8.80;100.00;99962.56;4917588;29;20048;-72
2022/12/22 12:46:53;;;;;;;29.33;15.35;;;;;;;8.68;100.00;99969.28;4901562;29;20475;-72
2022/12/22 12:49:51;;;;;;;25.67;14.00;;;;;;;8.51;100.00;99972.97;4901787;29;20020;-73
2022/12/22 12:52:17;;;;;;;28.30;14.73;;;;;;;8.71;100.00;99979.75;4916436;29;20028;-72
2022/12/22 12:54:43;;;;;;;23.45;13.48;;;;;;;8.67;100.00;99979.25;4901742;29;20080;-73
2022/12/22 12:57:13;;;;;;;33.05;15.57;;;;;;;8.75;100.00;99980.25;4900397;29;20032;-72
2022/12/22 12:59:38;;;;;;;29.65;16.25;;;;;;;8.99;100.00;99966.72;4916041;29;20119;-72
2022/12/22 13:02:26;;;;;;;33.00;16.13;;;;;;;8.93;100.00;99979.06;4917023;29;20064;-73
2022/12/22 13:05:14;;;;;;;36.55;17.30;;;;;;;9.18;100.00;99981.72;4914117;29;20036;-73
2022/12/22 13:08:07;;;;;;;30.92;16.13;;;;;;;9.05;100.00;99986.81;4914624;29;20032;-73
2022/12/22 13:10:45;;;;;;;27.58;15.68;;;;;;;9.19;100.00;99988.81;4899868;29;20036;-73
2022/12/22 13:13:34;;;;;;;25.23;14.75;;;;;;;9.04;100.00;100006.72;4900659;29;20024;-73
2022/12/22 13:16:03;;;;;;;30.38;12.15;;;;;;;8.83;100.00;99994.59;4907200;29;20058;-72
2022/12/22 13:18:34;;;;;;;25.20;12.57;;;;;;;9.05;100.00;99997.59;4931757;29;20112;-73
2022/12/22 13:21:07;;;;;;;23.35;12.18;;;;;;;8.98;100.00;99997.44;4941599;29;20037;-73
2022/12/22 13:23:43;;;;;;;24.70;12.48;;;;;;;8.92;100.00;100009.75;4950774;29;20031;-71
2022/12/22 13:26:14;;;;;;;28.55;11.50;;;;;;;9.14;100.00;100010.13;4950704;28;20031;-72
2022/12/22 13:28:43;;;;;;;26.25;13.10;;;;;;;9.10;100.00;100011.44;4936068;29;20027;-73
2022/12/22 13:31:19;;;;;;;28.67;14.48;;;;;;;8.97;100.00;100023.59;4947014;28;20032;-74
2022/12/22 13:33:51;;;;;;;22.20;13.55;;;;;;;9.23;100.00;100006.38;4915340;29;20023;-72
2022/12/22 13:36:25;;;;;;;25.38;13.27;;;;;;;9.31;100.00;100011.75;4927009;29;20024;-74
2022/12/22 13:39:00;;;;;;;30.70;14.05;;;;;;;9.44;100.00;100006.66;4935703;29;20032;-74
2022/12/22 13:41:26;;;;;;;31.15;13.73;;;;;;;9.58;98.95;100021.31;4918840;29;20032;-74
2022/12/22 13:43:55;;;;;;;29.42;13.35;;;;;;;8.97;100.00;100029.00;4939054;29;20031;-74
2022/12/22 13:46:21;;;;;;;30.25;12.77;;;;;;;8.86;100.00;100021.22;4940523;29;20091;-72
2022/12/22 13:48:53;;;;;;;25.95;12.82;;;;;;;8.75;100.00;100024.28;4918144;29;20111;-73
2022/12/22 13:51:18;;;;;;;;;;;;;;;8.93;100.00;100016.00;4950200;29;20035;-73
2022/12/22 13:53:48;;;;;;;29.98;14.00;;;;;;;8.81;100.00;100012.81;4933032;29;19923;-72
2022/12/22 13:56:25;;;;;;;31.90;13.02;;;;;;;8.85;100.00;100008.75;4942097;28;20484;-73
2022/12/22 13:58:56;;;;;;;34.70;14.52;;;;;;;8.98;100.00;100009.09;4917937;29;20091;-73
2022/12/22 14:01:22;;;;;;;32.25;13.60;;;;;;;8.80;100.00;100005.75;4918016;29;20554;-71
2022/12/22 14:03:52;;;;;;;35.45;13.55;;;;;;;8.83;100.00;100009.94;4949467;28;20043;-72
2022/12/22 14:06:32;;;;;;;29.50;14.23;;;;;;;8.81;100.00;100004.72;4949234;28;20083;-73
2022/12/22 14:09:18;;;;;;;35.25;15.30;;;;;;;8.79;100.00;100009.41;4918317;29;20020;-73
2022/12/22 14:11:47;;;;;;;33.97;15.45;;;;;;;8.68;100.00;100023.25;4929844;29;20050;-73
2022/12/22 14:14:23;;;;;;;30.83;13.07;;;;;;;8.87;100.00;100017.53;4932238;29;20024;-73
2022/12/22 14:16:50;;;;;;;37.67;14.13;;;;;;;8.67;100.00;100035.03;4917109;29;20023;-72
2022/12/22 14:19:17;;;;;;;28.63;13.88;;;;;;;8.95;100.00;100025.63;4949536;28;20047;-73
2022/12/22 14:21:48;;;;;;;27.23;12.70;;;;;;;8.87;100.00;100033.75;4917434;29;20023;-72
2022/12/22 14:24:23;;;;;;;29.23;14.48;;;;;;;8.67;100.00;100043.13;4908058;29;20027;-72
2022/12/22 14:26:51;;;;;;;39.25;15.30;;;;;;;8.57;100.00;100043.31;4933628;29;20031;-72
2022/12/22 14:29:21;;;;;;;32.38;14.90;;;;;;;8.37;100.00;100042.75;4915142;29;20284;-72
2022/12/22 14:32:00;;;;;;;38.60;15.40;;;;;;;8.32;100.00;100050.44;4933255;29;20451;-71
2022/12/22 14:34:30;;;;;;;39.35;14.18;;;;;;;8.41;100.00;100054.91;4903206;29;20035;-73
2022/12/22 14:36:57;;;;;;;48.33;14.45;;;;;;;8.35;100.00;100049.31;4917497;29;20099;-72
2022/12/22 14:39:26;;;;;;;41.22;15.68;;;;;;;8.41;100.00;100049.53;4917583;29;20059;-72
2022/12/22 14:42:11;;;;;;;36.22;13.93;;;;;;;8.37;100.00;100047.31;4940882;28;20139;-72
2022/12/22 14:44:43;;;;;;;34.40;14.35;;;;;;;8.14;100.00;100052.41;4923026;29;20090;-72
2022/12/22 14:47:18;;;;;;;;;;;;;;;8.10;100.00;100056.44;4934114;29;20041;-72
2022/12/22 14:49:57;;;;;;;36.90;14.40;;;;;;;8.20;100.00;100062.53;4930364;29;19911;-72
2022/12/22 14:52:26;;;;;;;41.47;14.40;;;;;;;8.12;100.00;100054.44;4925135;29;20035;-73
2022/12/22 14:54:53;;;;;;;34.22;15.73;;;;;;;8.25;100.00;100065.59;4948245;29;20079;-72
2022/12/22 14:57:41;;;;;;;34.88;14.02;;;;;;;8.29;100.00;100061.59;4916928;29;20066;-72
2022/12/22 15:00:21;;;;;;;34.47;14.15;;;;;;;8.29;100.00;100061.59;4937784;29;20040;-73
2022/12/22 15:03:02;;;;;;;40.63;15.38;;;;;;;8.13;100.00;100066.91;4933006;29;20035;-73
2022/12/22 15:05:28;;;;;;;39.25;14.60;;;;;;;8.29;100.00;100053.50;4933820;29;20501;-72
2022/12/22 15:07:56;;;;;;;38.88;15.15;;;;;;;8.24;100.00;100068.47;4932590;29;20039;-72